»·PEaware :: ASA347 PHNL-PHOG

ASA347 :: PHNL-PHOG

FLIGHT INFORMATION

Flight Status: Arrived
Operator:
Alaska Airlines
More flights by this operator :: More flights under this callsign
Pilot: Cooper LeComp (8467)
Aircraft: BOEING 737-800
(B738)
More flights by this aircraft type
Origin: PHNL Honolulu Intl
United States
Destination: PHOG Kahului
United States
More flights between these airports :: More routes between these airports
Route: LNY
File this flight plan on PilotEdge
Remarks:
Altitude:
(Current/Filed)
13,000ft
Speed:
(Current/Filed)
350kts
Departed: 11-Mar-17 10:10 AM
Arrived: 11-Mar-17 10:39 AM
Distance/Time
Traveled:
87nm/0:28
Distance/Time
To Go:
Arrived

Flight Plot

Page will automatically refresh every two minutes.

Flight plan parsing failed; only flown route is shown


Map Options




Map Legend


Flown Route
Filed Route
Departure Airport
Arrival Airport
Navaid (VOR, NDB)
Fix

Horizontal Profiles

Position Reports

Time Latitude Longitude Heading Altitude Ground
Speed
11-Mar-17 09:58 21.333457 -157.924674 99 43ft 0kts
11-Mar-17 09:59 21.333457 -157.924674 99 43ft 0kts
11-Mar-17 10:00 21.333490 -157.924885 99 43ft 3kts
11-Mar-17 10:01 21.333926 -157.925335 189 43ft 0kts
11-Mar-17 10:02 21.333925 -157.925336 189 43ft 0kts
11-Mar-17 10:03 21.330584 -157.927075 226 36ft 18kts
11-Mar-17 10:04 21.327887 -157.928946 180 31ft 7kts
11-Mar-17 10:05 21.327435 -157.932905 270 29ft 28kts
11-Mar-17 10:06 21.326984 -157.940799 215 29ft 17kts
11-Mar-17 10:07 21.320367 -157.944803 210 29ft 32kts
11-Mar-17 10:08 21.313525 -157.946214 173 16ft 20kts
11-Mar-17 10:09 21.309391 -157.945707 179 17ft 17kts
11-Mar-17 10:10 21.306796 -157.942791 89 22ft 36kts
11-Mar-17 10:11 21.302757 -157.901762 118 2220ft 170kts
11-Mar-17 10:12 21.272887 -157.849621 123 3581ft 274kts
11-Mar-17 10:13 21.231398 -157.781085 123 7115ft 289kts
11-Mar-17 10:14 21.187680 -157.707769 124 10331ft 313kts
11-Mar-17 10:15 21.134628 -157.618705 125 12575ft 374kts
11-Mar-17 10:16 21.111860 -157.510977 88 12964ft 388kts
11-Mar-17 10:17 21.117844 -157.423670 86 12967ft 389kts
11-Mar-17 10:18 21.126947 -157.308660 86 12964ft 389kts
11-Mar-17 10:19 21.128402 -157.194894 115 12973ft 383kts
11-Mar-17 10:20 21.051407 -157.123765 153 12966ft 369kts
11-Mar-17 10:21 20.978481 -157.082827 155 12687ft 365kts
11-Mar-17 10:22 20.931753 -157.057765 154 11509ft 347kts
11-Mar-17 10:23 20.852224 -157.015501 154 10385ft 312kts
11-Mar-17 10:24 20.779459 -156.976130 145 9615ft 286kts
11-Mar-17 10:25 20.748970 -156.906657 109 8442ft 282kts
11-Mar-17 10:26 20.726310 -156.827123 107 7147ft 280kts
11-Mar-17 10:27 20.704868 -156.748568 106 5885ft 275kts
11-Mar-17 10:28 20.683838 -156.671162 106 4635ft 267kts
11-Mar-17 10:29 20.668205 -156.595366 73 3424ft 262kts
11-Mar-17 10:30 20.720621 -156.559417 30 3489ft 193kts
11-Mar-17 10:31 20.757524 -156.534091 34 3239ft 151kts
11-Mar-17 10:32 20.791330 -156.509176 34 2454ft 147kts
11-Mar-17 10:33 20.823988 -156.484884 34 1665ft 144kts
11-Mar-17 10:34 20.855451 -156.461453 33 913ft 143kts
11-Mar-17 10:35 20.887894 -156.437315 34 195ft 143kts
11-Mar-17 10:36 20.920800 -156.410830 58 1902ft 158kts
11-Mar-17 10:37 20.890901 -156.394357 213 2088ft 198kts
11-Mar-17 10:38 20.845834 -156.430829 244 1267ft 187kts
11-Mar-17 10:39 20.875263 -156.447896 41 357ft 171kts
11-Mar-17 10:40 20.899409 -156.428818 17 25ft 0kts
11-Mar-17 10:41 20.896343 -156.432581 215 36ft 24kts
11-Mar-17 10:42 20.894529 -156.435470 304 47ft 0kts
11-Mar-17 10:43 20.894529 -156.435470 304 47ft 0kts
11-Mar-17 10:44 20.894529 -156.435470 304 47ft 0kts
11-Mar-17 10:45 20.894529 -156.435470 304 47ft 0kts
11-Mar-17 10:46 20.894529 -156.435470 304 47ft 0kts
11-Mar-17 10:47 20.894529 -156.435470 304 47ft 0kts
11-Mar-17 10:48 20.894529 -156.435470 304 47ft 0kts

Navigation Log

Ident Type
Flight plan parsing failed, navigation log unavailable